X  CloseMetar Aviation Weather Data     YMAV Avalon Airport

Temperature

28°C Temperature

11°C Dewpoint

35% Humidity



Wind

21 KM/H

13 MPH

 6 M/S

11 KTS



320°
North West
Current Conditions

Mostly Scattered Clouds Mostly Scattered Clouds
Pressure 1007.92 (hPa) - 29.76 (in)
Visibility 6.2 (mi) - 10 (km)
Airport
Airport-code YMAV

Location Avalon Airport 14 (km)

Metar:
YMAV 060530Z AUTO 32011KT 9999 // SCT073 28/11 Q1008 RF00.0/000.0

Time: 06-12-2021 16:30